River John, Canada
Current Conditions -  °F | °C
As of 12:00 PM on Thursday 30 Oct 2014 (Local Time) from CYYG Reporting Station
Broken Clouds Broken Clouds  
Wind Chill: 52°   Ceiling: 25000
Heat Index: 52°   Visibility: 15mi
Dew Point: 43°   Wind: 12mph
Humidity: 71%   Direction: 270°W
Pressure: 29.76"   Gusts: NA
Location:  45.73°N, 63.05°W
Report Text: CYYG 301500Z 27010KT 15SM FEW021 FEW120 BKN250 11/06 A2976 RMK SC1AC1CI4 CU ASOCTD SLP079
Loading
Personal Weather Stations






























Interactive Weather Map
Tropical Storm Tracking
New forecast layout! Learn more

10-Day Weather Forecast

Advertisements
Track Severe Weather on mobile